Terminal Aerodrome Forecast
Issued by NWS Sterling, VA

Current Version | Previous Version | Text Only | Print | Product List | Glossary Off
Versions: 1 2 3 4 5 6 7 8 9 10 11 12 13 14 15 16 17 18 19 20 21

000
FTUS41 KLWX 282100 AAA
TAFIAD
TAF AMD
KIAD 282100Z 2821/2924 26005KT P6SM SCT060
     FM282300 VRB03KT P6SM FEW250
     FM290900 00000KT P6SM SCT050
     FM291300 20004KT P6SM SCT250=

USA.gov is the U.S. government's official web portal to all federal, state and local government web resources and services.